sensor_id;sensor_type;location;lat;lon;timestamp;P1;durP1;ratioP1;P2;durP2;ratioP2
20695;SDS011;10507;52.754;13.040;2023-04-06T16:52:15;5.35;;;2.33;;
20695;SDS011;10507;52.754;13.040;2023-04-06T16:55:07;3.20;;;2.30;;
20695;SDS011;10507;52.754;13.040;2023-04-06T16:57:35;3.38;;;2.40;;
20695;SDS011;10507;52.754;13.040;2023-04-06T17:00:04;3.45;;;2.30;;
20695;SDS011;10507;52.754;13.040;2023-04-06T17:02:33;3.83;;;2.72;;
20695;SDS011;10507;52.754;13.040;2023-04-06T17:05:04;5.60;;;2.20;;
20695;SDS011;10507;52.754;13.040;2023-04-06T17:07:34;3.93;;;2.17;;
20695;SDS011;10507;52.754;13.040;2023-04-06T17:10:03;3.03;;;1.95;;
20695;SDS011;10507;52.754;13.040;2023-04-06T17:12:32;4.20;;;2.57;;
20695;SDS011;10507;52.754;13.040;2023-04-06T17:15:00;4.50;;;2.47;;
20695;SDS011;10507;52.754;13.040;2023-04-06T17:17:28;4.33;;;2.23;;
20695;SDS011;10507;52.754;13.040;2023-04-06T17:19:56;3.93;;;2.80;;
20695;SDS011;10507;52.754;13.040;2023-04-06T17:22:26;5.97;;;2.60;;
20695;SDS011;10507;52.754;13.040;2023-04-06T17:24:54;5.57;;;2.80;;
20695;SDS011;10507;52.754;13.040;2023-04-06T17:27:22;3.47;;;2.27;;
20695;SDS011;10507;52.754;13.040;2023-04-06T17:29:52;6.87;;;2.70;;
20695;SDS011;10507;52.754;13.040;2023-04-06T17:32:20;3.83;;;2.53;;
20695;SDS011;10507;52.754;13.040;2023-04-06T17:34:48;2.97;;;2.27;;
20695;SDS011;10507;52.754;13.040;2023-04-06T17:37:16;4.10;;;2.10;;
20695;SDS011;10507;52.754;13.040;2023-04-06T17:39:45;2.97;;;2.27;;
20695;SDS011;10507;52.754;13.040;2023-04-06T17:42:13;4.07;;;2.50;;
20695;SDS011;10507;52.754;13.040;2023-04-06T17:44:41;4.00;;;2.33;;
20695;SDS011;10507;52.754;13.040;2023-04-06T17:47:09;4.30;;;2.70;;
20695;SDS011;10507;52.754;13.040;2023-04-06T17:49:37;4.10;;;2.27;;
20695;SDS011;10507;52.754;13.040;2023-04-06T17:52:05;3.73;;;2.40;;
20695;SDS011;10507;52.754;13.040;2023-04-06T17:54:36;4.53;;;2.67;;
20695;SDS011;10507;52.754;13.040;2023-04-06T17:57:05;4.93;;;2.90;;
20695;SDS011;10507;52.754;13.040;2023-04-06T17:59:34;5.50;;;3.07;;
20695;SDS011;10507;52.754;13.040;2023-04-06T18:02:02;4.83;;;2.73;;
20695;SDS011;10507;52.754;13.040;2023-04-06T18:04:31;4.80;;;3.10;;
20695;SDS011;10507;52.754;13.040;2023-04-06T18:06:59;4.83;;;2.83;;
20695;SDS011;10507;52.754;13.040;2023-04-06T18:09:29;2.77;;;2.10;;
20695;SDS011;10507;52.754;13.040;2023-04-06T18:11:56;4.17;;;2.50;;
20695;SDS011;10507;52.754;13.040;2023-04-06T18:14:26;4.43;;;2.70;;
20695;SDS011;10507;52.754;13.040;2023-04-06T18:16:54;5.63;;;2.90;;
20695;SDS011;10507;52.754;13.040;2023-04-06T18:19:22;3.97;;;2.50;;
20695;SDS011;10507;52.754;13.040;2023-04-06T18:21:50;5.13;;;2.90;;
20695;SDS011;10507;52.754;13.040;2023-04-06T18:24:17;4.27;;;2.30;;
20695;SDS011;10507;52.754;13.040;2023-04-06T18:27:05;5.97;;;2.57;;
20695;SDS011;10507;52.754;13.040;2023-04-06T18:29:35;3.50;;;2.43;;
20695;SDS011;10507;52.754;13.040;2023-04-06T18:32:03;4.47;;;2.67;;
20695;SDS011;10507;52.754;13.040;2023-04-06T18:34:32;4.10;;;2.77;;
20695;SDS011;10507;52.754;13.040;2023-04-06T18:37:01;5.07;;;2.40;;
20695;SDS011;10507;52.754;13.040;2023-04-06T18:39:29;5.17;;;2.63;;
20695;SDS011;10507;52.754;13.040;2023-04-06T18:41:57;3.73;;;2.63;;
20695;SDS011;10507;52.754;13.040;2023-04-06T18:44:25;4.10;;;2.57;;
20695;SDS011;10507;52.754;13.040;2023-04-06T18:46:54;4.13;;;2.80;;
20695;SDS011;10507;52.754;13.040;2023-04-06T18:49:23;4.87;;;2.40;;
20695;SDS011;10507;52.754;13.040;2023-04-06T18:51:52;3.63;;;2.50;;
20695;SDS011;10507;52.754;13.040;2023-04-06T18:54:21;4.37;;;2.80;;
20695;SDS011;10507;52.754;13.040;2023-04-06T18:56:48;4.17;;;2.40;;
20695;SDS011;10507;52.754;13.040;2023-04-06T18:59:16;3.83;;;2.50;;
20695;SDS011;10507;52.754;13.040;2023-04-06T19:01:44;4.57;;;2.50;;
20695;SDS011;10507;52.754;13.040;2023-04-06T19:04:19;5.67;;;3.30;;
20695;SDS011;10507;52.754;13.040;2023-04-06T19:06:52;4.07;;;2.70;;
20695;SDS011;10507;52.754;13.040;2023-04-06T19:09:21;4.90;;;2.93;;
20695;SDS011;10507;52.754;13.040;2023-04-06T19:11:48;5.73;;;3.33;;
20695;SDS011;10507;52.754;13.040;2023-04-06T19:14:17;4.77;;;3.03;;
20695;SDS011;10507;52.754;13.040;2023-04-06T19:16:45;4.93;;;3.30;;
20695;SDS011;10507;52.754;13.040;2023-04-06T19:19:19;6.00;;;3.70;;
20695;SDS011;10507;52.754;13.040;2023-04-06T19:21:48;5.00;;;2.90;;
20695;SDS011;10507;52.754;13.040;2023-04-06T19:24:15;6.90;;;3.53;;
20695;SDS011;10507;52.754;13.040;2023-04-06T19:26:43;6.97;;;3.33;;
20695;SDS011;10507;52.754;13.040;2023-04-06T19:29:12;7.20;;;3.30;;
20695;SDS011;10507;52.754;13.040;2023-04-06T19:31:40;6.60;;;3.63;;
20695;SDS011;10507;52.754;13.040;2023-04-06T19:34:08;5.50;;;3.67;;
20695;SDS011;10507;52.754;13.040;2023-04-06T19:36:37;5.77;;;3.70;;
20695;SDS011;10507;52.754;13.040;2023-04-06T19:39:05;8.20;;;3.60;;
20695;SDS011;10507;52.754;13.040;2023-04-06T19:41:34;5.67;;;3.67;;
20695;SDS011;10507;52.754;13.040;2023-04-06T19:44:03;5.90;;;3.30;;
20695;SDS011;10507;52.754;13.040;2023-04-06T19:46:32;5.63;;;4.00;;
20695;SDS011;10507;52.754;13.040;2023-04-06T19:49:00;6.17;;;3.80;;
20695;SDS011;10507;52.754;13.040;2023-04-06T19:51:29;5.57;;;3.73;;
20695;SDS011;10507;52.754;13.040;2023-04-06T19:53:59;5.83;;;3.70;;
20695;SDS011;10507;52.754;13.040;2023-04-06T19:56:29;7.60;;;4.87;;
20695;SDS011;10507;52.754;13.040;2023-04-06T19:58:58;6.43;;;3.70;;
20695;SDS011;10507;52.754;13.040;2023-04-06T20:01:27;8.03;;;4.30;;
20695;SDS011;10507;52.754;13.040;2023-04-06T20:03:56;8.83;;;4.30;;
20695;SDS011;10507;52.754;13.040;2023-04-06T20:06:24;8.00;;;4.17;;
20695;SDS011;10507;52.754;13.040;2023-04-06T20:08:52;7.10;;;4.70;;
20695;SDS011;10507;52.754;13.040;2023-04-06T20:11:21;7.37;;;3.97;;
20695;SDS011;10507;52.754;13.040;2023-04-06T20:13:49;6.27;;;3.83;;
20695;SDS011;10507;52.754;13.040;2023-04-06T20:16:17;7.53;;;4.43;;
20695;SDS011;10507;52.754;13.040;2023-04-06T20:18:45;6.90;;;4.47;;
20695;SDS011;10507;52.754;13.040;2023-04-06T20:21:13;6.90;;;3.77;;
20695;SDS011;10507;52.754;13.040;2023-04-06T20:23:41;7.83;;;4.30;;
20695;SDS011;10507;52.754;13.040;2023-04-06T20:26:09;7.93;;;5.00;;
20695;SDS011;10507;52.754;13.040;2023-04-06T20:28:38;6.93;;;4.13;;
20695;SDS011;10507;52.754;13.040;2023-04-06T20:31:06;5.63;;;4.07;;
20695;SDS011;10507;52.754;13.040;2023-04-06T20:33:34;7.47;;;4.67;;
20695;SDS011;10507;52.754;13.040;2023-04-06T20:36:02;6.63;;;4.20;;
20695;SDS011;10507;52.754;13.040;2023-04-06T20:38:30;8.10;;;4.30;;
20695;SDS011;10507;52.754;13.040;2023-04-06T20:40:59;8.30;;;4.43;;
20695;SDS011;10507;52.754;13.040;2023-04-06T20:43:27;8.57;;;4.67;;
20695;SDS011;10507;52.754;13.040;2023-04-06T20:46:18;8.00;;;4.50;;
20695;SDS011;10507;52.754;13.040;2023-04-06T20:48:46;8.73;;;4.60;;
20695;SDS011;10507;52.754;13.040;2023-04-06T20:51:17;6.30;;;4.33;;
20695;SDS011;10507;52.754;13.040;2023-04-06T20:53:46;8.40;;;5.37;;
20695;SDS011;10507;52.754;13.040;2023-04-06T20:56:14;8.60;;;4.63;;
20695;SDS011;10507;52.754;13.040;2023-04-06T20:58:41;7.13;;;4.53;;
20695;SDS011;10507;52.754;13.040;2023-04-06T21:01:12;8.27;;;5.30;;
20695;SDS011;10507;52.754;13.040;2023-04-06T21:03:43;7.00;;;4.87;;
20695;SDS011;10507;52.754;13.040;2023-04-06T21:06:11;7.47;;;5.43;;
20695;SDS011;10507;52.754;13.040;2023-04-06T21:08:39;9.40;;;4.83;;
20695;SDS011;10507;52.754;13.040;2023-04-06T21:11:07;6.97;;;4.73;;
20695;SDS011;10507;52.754;13.040;2023-04-06T21:13:36;9.90;;;5.03;;
20695;SDS011;10507;52.754;13.040;2023-04-06T21:16:04;10.80;;;5.77;;
20695;SDS011;10507;52.754;13.040;2023-04-06T21:18:32;6.63;;;4.87;;
20695;SDS011;10507;52.754;13.040;2023-04-06T21:21:02;8.17;;;4.77;;
20695;SDS011;10507;52.754;13.040;2023-04-06T21:23:30;7.07;;;4.60;;
20695;SDS011;10507;52.754;13.040;2023-04-06T21:25:58;7.37;;;4.63;;
20695;SDS011;10507;52.754;13.040;2023-04-06T21:28:27;6.73;;;4.10;;
20695;SDS011;10507;52.754;13.040;2023-04-06T21:30:55;7.10;;;4.70;;
20695;SDS011;10507;52.754;13.040;2023-04-06T21:33:23;6.67;;;3.97;;
20695;SDS011;10507;52.754;13.040;2023-04-06T21:35:51;6.77;;;4.40;;
20695;SDS011;10507;52.754;13.040;2023-04-06T21:38:20;5.97;;;4.10;;
20695;SDS011;10507;52.754;13.040;2023-04-06T21:40:52;7.53;;;4.50;;
20695;SDS011;10507;52.754;13.040;2023-04-06T21:43:21;6.17;;;4.57;;
20695;SDS011;10507;52.754;13.040;2023-04-06T21:45:49;8.83;;;5.30;;
20695;SDS011;10507;52.754;13.040;2023-04-06T21:48:17;6.87;;;5.07;;
20695;SDS011;10507;52.754;13.040;2023-04-06T21:50:45;7.13;;;4.93;;
20695;SDS011;10507;52.754;13.040;2023-04-06T21:53:13;6.00;;;4.40;;
20695;SDS011;10507;52.754;13.040;2023-04-06T21:55:42;6.70;;;5.47;;
20695;SDS011;10507;52.754;13.040;2023-04-06T21:58:12;8.20;;;5.00;;
20695;SDS011;10507;52.754;13.040;2023-04-06T22:00:41;7.30;;;5.20;;
20695;SDS011;10507;52.754;13.040;2023-04-06T22:03:09;7.57;;;4.67;;
20695;SDS011;10507;52.754;13.040;2023-04-06T22:05:37;8.87;;;5.40;;
20695;SDS011;10507;52.754;13.040;2023-04-06T22:08:05;9.73;;;5.17;;
20695;SDS011;10507;52.754;13.040;2023-04-06T22:10:37;8.57;;;5.20;;
20695;SDS011;10507;52.754;13.040;2023-04-06T22:13:07;8.33;;;5.70;;
20695;SDS011;10507;52.754;13.040;2023-04-06T22:15:37;8.10;;;5.60;;
20695;SDS011;10507;52.754;13.040;2023-04-06T22:18:05;8.10;;;5.47;;
20695;SDS011;10507;52.754;13.040;2023-04-06T22:20:33;9.13;;;5.97;;
20695;SDS011;10507;52.754;13.040;2023-04-06T22:23:01;8.07;;;6.07;;
20695;SDS011;10507;52.754;13.040;2023-04-06T22:25:29;10.37;;;5.50;;
20695;SDS011;10507;52.754;13.040;2023-04-06T22:27:57;7.90;;;5.43;;
20695;SDS011;10507;52.754;13.040;2023-04-06T22:30:27;6.80;;;5.03;;
20695;SDS011;10507;52.754;13.040;2023-04-06T22:32:55;9.17;;;6.07;;
20695;SDS011;10507;52.754;13.040;2023-04-06T22:35:23;8.23;;;5.90;;
20695;SDS011;10507;52.754;13.040;2023-04-06T22:37:50;8.83;;;5.47;;
20695;SDS011;10507;52.754;13.040;2023-04-06T22:40:18;8.50;;;5.93;;
20695;SDS011;10507;52.754;13.040;2023-04-06T22:42:46;7.57;;;5.80;;
20695;SDS011;10507;52.754;13.040;2023-04-06T22:45:14;8.87;;;6.00;;
20695;SDS011;10507;52.754;13.040;2023-04-06T22:47:43;7.83;;;5.80;;
20695;SDS011;10507;52.754;13.040;2023-04-06T22:50:11;8.33;;;6.03;;
20695;SDS011;10507;52.754;13.040;2023-04-06T22:52:40;8.30;;;5.70;;
20695;SDS011;10507;52.754;13.040;2023-04-06T22:55:08;10.03;;;5.77;;
20695;SDS011;10507;52.754;13.040;2023-04-06T22:57:36;8.33;;;5.53;;
20695;SDS011;10507;52.754;13.040;2023-04-06T23:00:04;7.73;;;5.90;;
20695;SDS011;10507;52.754;13.040;2023-04-06T23:02:33;10.77;;;5.90;;
20695;SDS011;10507;52.754;13.040;2023-04-06T23:05:03;8.13;;;6.07;;
20695;SDS011;10507;52.754;13.040;2023-04-06T23:07:32;8.43;;;5.50;;
20695;SDS011;10507;52.754;13.040;2023-04-06T23:10:00;8.77;;;5.63;;
20695;SDS011;10507;52.754;13.040;2023-04-06T23:12:28;7.53;;;5.50;;
20695;SDS011;10507;52.754;13.040;2023-04-06T23:14:56;8.13;;;5.80;;
20695;SDS011;10507;52.754;13.040;2023-04-06T23:17:24;8.50;;;5.70;;
20695;SDS011;10507;52.754;13.040;2023-04-06T23:19:52;9.07;;;5.67;;
20695;SDS011;10507;52.754;13.040;2023-04-06T23:22:22;7.77;;;5.80;;
20695;SDS011;10507;52.754;13.040;2023-04-06T23:24:50;7.33;;;5.60;;
20695;SDS011;10507;52.754;13.040;2023-04-06T23:27:18;10.10;;;5.93;;
20695;SDS011;10507;52.754;13.040;2023-04-06T23:29:45;9.13;;;5.83;;
20695;SDS011;10507;52.754;13.040;2023-04-06T23:32:13;8.50;;;6.17;;
20695;SDS011;10507;52.754;13.040;2023-04-06T23:34:41;8.40;;;6.00;;
20695;SDS011;10507;52.754;13.040;2023-04-06T23:37:09;14.27;;;6.27;;
20695;SDS011;10507;52.754;13.040;2023-04-06T23:39:39;10.23;;;6.47;;
20695;SDS011;10507;52.754;13.040;2023-04-06T23:42:08;7.90;;;5.67;;
20695;SDS011;10507;52.754;13.040;2023-04-06T23:44:35;12.10;;;6.50;;
20695;SDS011;10507;52.754;13.040;2023-04-06T23:47:03;9.57;;;6.43;;
20695;SDS011;10507;52.754;13.040;2023-04-06T23:49:32;10.23;;;5.63;;
20695;SDS011;10507;52.754;13.040;2023-04-06T23:52:00;10.17;;;6.40;;
20695;SDS011;10507;52.754;13.040;2023-04-06T23:54:28;8.90;;;6.10;;
20695;SDS011;10507;52.754;13.040;2023-04-06T23:56:57;8.67;;;5.77;;
20695;SDS011;10507;52.754;13.040;2023-04-06T23:59:26;9.73;;;5.60;;
